Terminal Aerodrome Forecast
Issued by NWS

Home | Current Version | Previous Version | Text Only | Print | Product List | Glossary On
Versions: 1 2 3 4 5 6 7 8 9 10 11 12 13 14 15 16 17 18 19 20 21 22 23 24 25 26
000
FTUS45 KREV 291757
TAFTRK
TAF
KTRK 291757Z 2918/3018 24005KT P6SM SCT070 BKN140
     FM300300 20010G16KT P6SM BKN060 BKN120
     FM300800 21012G20KT 5SM -SHRA BKN030 OVC050 WS020/30045KT
     FM301100 24015G25KT 1 1/2SM -RASN OVC010
     FM301500 28011G20KT P6SM FEW060 BKN100=

USA.gov is the U.S. government's official web portal to all federal, state and local government web resources and services.